sensor_id;sensor_type;location;lat;lon;timestamp;P1;durP1;ratioP1;P2;durP2;ratioP2
83026;SDS011;72842;56.038;12.706;2023-12-04T00:00:39;6.95;;;5.80;;
83026;SDS011;72842;56.038;12.706;2023-12-04T00:03:05;7.25;;;5.55;;
83026;SDS011;72842;56.038;12.706;2023-12-04T00:05:30;9.38;;;5.70;;
83026;SDS011;72842;56.038;12.706;2023-12-04T00:07:55;8.52;;;6.07;;
83026;SDS011;72842;56.038;12.706;2023-12-04T00:10:21;6.03;;;5.43;;
83026;SDS011;72842;56.038;12.706;2023-12-04T00:12:46;8.77;;;5.82;;
83026;SDS011;72842;56.038;12.706;2023-12-04T00:15:12;7.55;;;5.28;;
83026;SDS011;72842;56.038;12.706;2023-12-04T00:17:37;6.82;;;5.05;;
83026;SDS011;72842;56.038;12.706;2023-12-04T00:20:05;6.68;;;5.97;;
83026;SDS011;72842;56.038;12.706;2023-12-04T00:22:33;7.15;;;5.20;;
83026;SDS011;72842;56.038;12.706;2023-12-04T00:24:58;6.93;;;5.65;;
83026;SDS011;72842;56.038;12.706;2023-12-04T00:27:24;6.25;;;4.75;;
83026;SDS011;72842;56.038;12.706;2023-12-04T00:29:52;6.65;;;5.68;;
83026;SDS011;72842;56.038;12.706;2023-12-04T00:32:18;6.03;;;4.78;;
83026;SDS011;72842;56.038;12.706;2023-12-04T00:34:44;6.13;;;3.97;;
83026;SDS011;72842;56.038;12.706;2023-12-04T00:37:10;7.80;;;5.88;;
83026;SDS011;72842;56.038;12.706;2023-12-04T00:39:35;5.60;;;5.10;;
83026;SDS011;72842;56.038;12.706;2023-12-04T00:42:00;5.85;;;4.82;;
83026;SDS011;72842;56.038;12.706;2023-12-04T00:44:26;5.35;;;4.50;;
83026;SDS011;72842;56.038;12.706;2023-12-04T00:46:51;5.22;;;4.72;;
83026;SDS011;72842;56.038;12.706;2023-12-04T00:49:17;5.63;;;4.40;;
83026;SDS011;72842;56.038;12.706;2023-12-04T00:51:42;4.22;;;3.17;;
83026;SDS011;72842;56.038;12.706;2023-12-04T00:54:07;7.28;;;5.00;;
83026;SDS011;72842;56.038;12.706;2023-12-04T00:56:33;4.85;;;4.10;;
83026;SDS011;72842;56.038;12.706;2023-12-04T00:58:59;4.93;;;4.43;;
83026;SDS011;72842;56.038;12.706;2023-12-04T01:01:24;6.07;;;5.35;;
83026;SDS011;72842;56.038;12.706;2023-12-04T01:03:49;6.07;;;3.60;;
83026;SDS011;72842;56.038;12.706;2023-12-04T01:06:21;7.15;;;4.10;;
83026;SDS011;72842;56.038;12.706;2023-12-04T01:08:48;6.10;;;4.32;;
83026;SDS011;72842;56.038;12.706;2023-12-04T01:11:14;4.82;;;3.42;;
83026;SDS011;72842;56.038;12.706;2023-12-04T01:13:40;5.32;;;4.22;;
83026;SDS011;72842;56.038;12.706;2023-12-04T01:16:05;4.88;;;3.75;;
83026;SDS011;72842;56.038;12.706;2023-12-04T01:18:31;6.38;;;4.82;;
83026;SDS011;72842;56.038;12.706;2023-12-04T01:20:57;4.85;;;4.32;;
83026;SDS011;72842;56.038;12.706;2023-12-04T01:23:22;5.55;;;4.53;;
83026;SDS011;72842;56.038;12.706;2023-12-04T01:25:48;5.50;;;4.32;;
83026;SDS011;72842;56.038;12.706;2023-12-04T01:28:13;4.93;;;4.35;;
83026;SDS011;72842;56.038;12.706;2023-12-04T01:30:39;4.63;;;3.90;;
83026;SDS011;72842;56.038;12.706;2023-12-04T01:33:05;7.43;;;3.97;;
83026;SDS011;72842;56.038;12.706;2023-12-04T01:35:30;4.75;;;3.95;;
83026;SDS011;72842;56.038;12.706;2023-12-04T01:37:55;5.35;;;4.50;;
83026;SDS011;72842;56.038;12.706;2023-12-04T01:40:21;4.38;;;3.08;;
83026;SDS011;72842;56.038;12.706;2023-12-04T01:42:46;4.28;;;3.88;;
83026;SDS011;72842;56.038;12.706;2023-12-04T01:45:12;4.90;;;3.78;;
83026;SDS011;72842;56.038;12.706;2023-12-04T01:47:37;4.93;;;3.10;;
83026;SDS011;72842;56.038;12.706;2023-12-04T01:50:04;4.43;;;3.90;;
83026;SDS011;72842;56.038;12.706;2023-12-04T01:52:30;4.40;;;3.90;;
83026;SDS011;72842;56.038;12.706;2023-12-04T01:54:56;6.35;;;5.03;;
83026;SDS011;72842;56.038;12.706;2023-12-04T01:57:22;5.65;;;4.07;;
83026;SDS011;72842;56.038;12.706;2023-12-04T01:59:47;4.85;;;4.00;;
83026;SDS011;72842;56.038;12.706;2023-12-04T02:02:13;5.90;;;4.10;;
83026;SDS011;72842;56.038;12.706;2023-12-04T02:04:39;4.80;;;4.10;;
83026;SDS011;72842;56.038;12.706;2023-12-04T02:07:04;5.25;;;4.00;;
83026;SDS011;72842;56.038;12.706;2023-12-04T02:09:30;4.32;;;3.97;;
83026;SDS011;72842;56.038;12.706;2023-12-04T02:11:55;5.15;;;4.40;;
83026;SDS011;72842;56.038;12.706;2023-12-04T02:14:22;5.63;;;4.20;;
83026;SDS011;72842;56.038;12.706;2023-12-04T02:16:47;4.50;;;3.97;;
83026;SDS011;72842;56.038;12.706;2023-12-04T02:19:15;7.13;;;4.40;;
83026;SDS011;72842;56.038;12.706;2023-12-04T02:21:40;4.43;;;3.75;;
83026;SDS011;72842;56.038;12.706;2023-12-04T02:24:06;7.50;;;4.38;;
83026;SDS011;72842;56.038;12.706;2023-12-04T02:26:34;5.35;;;4.90;;
83026;SDS011;72842;56.038;12.706;2023-12-04T02:29:10;5.03;;;4.10;;
83026;SDS011;72842;56.038;12.706;2023-12-04T02:31:40;4.72;;;4.13;;
83026;SDS011;72842;56.038;12.706;2023-12-04T02:34:06;4.57;;;3.85;;
83026;SDS011;72842;56.038;12.706;2023-12-04T02:36:34;4.55;;;4.00;;
83026;SDS011;72842;56.038;12.706;2023-12-04T02:39:01;4.45;;;4.05;;
83026;SDS011;72842;56.038;12.706;2023-12-04T02:41:27;4.72;;;4.10;;
83026;SDS011;72842;56.038;12.706;2023-12-04T02:43:52;4.93;;;4.45;;
83026;SDS011;72842;56.038;12.706;2023-12-04T02:46:18;5.80;;;3.83;;
83026;SDS011;72842;56.038;12.706;2023-12-04T02:48:43;4.65;;;3.80;;
83026;SDS011;72842;56.038;12.706;2023-12-04T02:51:09;4.95;;;3.72;;
83026;SDS011;72842;56.038;12.706;2023-12-04T02:53:35;5.30;;;4.47;;
83026;SDS011;72842;56.038;12.706;2023-12-04T02:56:01;7.38;;;4.60;;
83026;SDS011;72842;56.038;12.706;2023-12-04T02:58:26;4.45;;;4.05;;
83026;SDS011;72842;56.038;12.706;2023-12-04T03:00:51;4.10;;;3.70;;
83026;SDS011;72842;56.038;12.706;2023-12-04T03:03:17;4.40;;;4.00;;
83026;SDS011;72842;56.038;12.706;2023-12-04T03:05:42;4.60;;;3.97;;
83026;SDS011;72842;56.038;12.706;2023-12-04T03:08:08;5.32;;;4.53;;
83026;SDS011;72842;56.038;12.706;2023-12-04T03:10:33;4.07;;;3.67;;
83026;SDS011;72842;56.038;12.706;2023-12-04T03:12:58;5.18;;;4.03;;
83026;SDS011;72842;56.038;12.706;2023-12-04T03:15:24;4.40;;;4.00;;
83026;SDS011;72842;56.038;12.706;2023-12-04T03:17:49;5.57;;;4.30;;
83026;SDS011;72842;56.038;12.706;2023-12-04T03:20:15;4.82;;;4.20;;
83026;SDS011;72842;56.038;12.706;2023-12-04T03:22:40;4.78;;;4.13;;
83026;SDS011;72842;56.038;12.706;2023-12-04T03:25:06;4.30;;;3.90;;
83026;SDS011;72842;56.038;12.706;2023-12-04T03:27:31;4.43;;;3.83;;
83026;SDS011;72842;56.038;12.706;2023-12-04T03:29:57;6.40;;;4.22;;
83026;SDS011;72842;56.038;12.706;2023-12-04T03:32:22;4.82;;;4.03;;
83026;SDS011;72842;56.038;12.706;2023-12-04T03:34:48;6.13;;;4.15;;
83026;SDS011;72842;56.038;12.706;2023-12-04T03:37:13;4.65;;;2.85;;
83026;SDS011;72842;56.038;12.706;2023-12-04T03:39:38;4.63;;;4.15;;
83026;SDS011;72842;56.038;12.706;2023-12-04T03:42:04;5.82;;;4.65;;
83026;SDS011;72842;56.038;12.706;2023-12-04T03:44:29;7.03;;;4.15;;
83026;SDS011;72842;56.038;12.706;2023-12-04T03:46:55;5.13;;;4.05;;
83026;SDS011;72842;56.038;12.706;2023-12-04T03:49:20;5.57;;;4.90;;
83026;SDS011;72842;56.038;12.706;2023-12-04T03:51:45;5.63;;;3.90;;
83026;SDS011;72842;56.038;12.706;2023-12-04T03:54:11;4.80;;;4.20;;
83026;SDS011;72842;56.038;12.706;2023-12-04T03:56:38;4.82;;;4.35;;
83026;SDS011;72842;56.038;12.706;2023-12-04T03:59:04;6.30;;;4.20;;
83026;SDS011;72842;56.038;12.706;2023-12-04T04:01:30;5.25;;;4.72;;
83026;SDS011;72842;56.038;12.706;2023-12-04T04:03:55;5.97;;;4.45;;
83026;SDS011;72842;56.038;12.706;2023-12-04T04:06:20;5.03;;;4.20;;
83026;SDS011;72842;56.038;12.706;2023-12-04T04:08:46;6.20;;;4.32;;
83026;SDS011;72842;56.038;12.706;2023-12-04T04:11:11;7.20;;;6.43;;
83026;SDS011;72842;56.038;12.706;2023-12-04T04:13:37;5.72;;;4.30;;
83026;SDS011;72842;56.038;12.706;2023-12-04T04:16:02;7.03;;;4.50;;
83026;SDS011;72842;56.038;12.706;2023-12-04T04:18:28;5.47;;;3.83;;
83026;SDS011;72842;56.038;12.706;2023-12-04T04:20:53;5.03;;;4.53;;
83026;SDS011;72842;56.038;12.706;2023-12-04T04:23:18;5.63;;;4.90;;
83026;SDS011;72842;56.038;12.706;2023-12-04T04:25:44;5.55;;;4.85;;
83026;SDS011;72842;56.038;12.706;2023-12-04T04:28:09;6.82;;;4.95;;
83026;SDS011;72842;56.038;12.706;2023-12-04T04:30:35;5.25;;;4.47;;
83026;SDS011;72842;56.038;12.706;2023-12-04T04:33:00;4.97;;;4.47;;
83026;SDS011;72842;56.038;12.706;2023-12-04T04:35:25;8.40;;;5.53;;
83026;SDS011;72842;56.038;12.706;2023-12-04T04:37:51;6.70;;;5.57;;
83026;SDS011;72842;56.038;12.706;2023-12-04T04:40:16;7.05;;;5.78;;
83026;SDS011;72842;56.038;12.706;2023-12-04T04:42:43;6.60;;;4.82;;
83026;SDS011;72842;56.038;12.706;2023-12-04T04:45:08;6.22;;;4.50;;
83026;SDS011;72842;56.038;12.706;2023-12-04T04:47:34;5.78;;;4.95;;
83026;SDS011;72842;56.038;12.706;2023-12-04T04:49:59;6.82;;;4.93;;
83026;SDS011;72842;56.038;12.706;2023-12-04T04:52:25;6.40;;;5.05;;
83026;SDS011;72842;56.038;12.706;2023-12-04T04:54:50;6.43;;;5.10;;
83026;SDS011;72842;56.038;12.706;2023-12-04T04:57:15;6.97;;;5.57;;
83026;SDS011;72842;56.038;12.706;2023-12-04T04:59:41;7.72;;;6.03;;
83026;SDS011;72842;56.038;12.706;2023-12-04T05:02:06;6.68;;;5.95;;
83026;SDS011;72842;56.038;12.706;2023-12-04T05:04:32;6.90;;;5.22;;
83026;SDS011;72842;56.038;12.706;2023-12-04T05:06:57;6.57;;;4.78;;
83026;SDS011;72842;56.038;12.706;2023-12-04T05:09:22;7.00;;;5.68;;
83026;SDS011;72842;56.038;12.706;2023-12-04T05:11:48;7.20;;;5.40;;
83026;SDS011;72842;56.038;12.706;2023-12-04T05:14:13;8.23;;;6.40;;
83026;SDS011;72842;56.038;12.706;2023-12-04T05:16:38;6.55;;;5.93;;
83026;SDS011;72842;56.038;12.706;2023-12-04T05:19:04;8.40;;;6.25;;
83026;SDS011;72842;56.038;12.706;2023-12-04T05:21:29;8.52;;;5.72;;
83026;SDS011;72842;56.038;12.706;2023-12-04T05:23:55;6.47;;;5.88;;
83026;SDS011;72842;56.038;12.706;2023-12-04T05:26:20;6.18;;;5.03;;
83026;SDS011;72842;56.038;12.706;2023-12-04T05:28:45;8.80;;;7.07;;
83026;SDS011;72842;56.038;12.706;2023-12-04T05:31:11;6.90;;;5.22;;
83026;SDS011;72842;56.038;12.706;2023-12-04T05:33:36;7.38;;;4.95;;
83026;SDS011;72842;56.038;12.706;2023-12-04T05:36:02;8.93;;;6.88;;
83026;SDS011;72842;56.038;12.706;2023-12-04T05:38:28;7.97;;;6.38;;
83026;SDS011;72842;56.038;12.706;2023-12-04T05:40:53;9.10;;;6.00;;
83026;SDS011;72842;56.038;12.706;2023-12-04T05:43:19;7.88;;;6.15;;
83026;SDS011;72842;56.038;12.706;2023-12-04T05:45:45;8.32;;;5.90;;
83026;SDS011;72842;56.038;12.706;2023-12-04T05:48:10;8.20;;;6.32;;
83026;SDS011;72842;56.038;12.706;2023-12-04T05:50:36;7.05;;;5.93;;
83026;SDS011;72842;56.038;12.706;2023-12-04T05:53:01;9.45;;;6.75;;
83026;SDS011;72842;56.038;12.706;2023-12-04T05:55:26;9.93;;;6.85;;
83026;SDS011;72842;56.038;12.706;2023-12-04T05:57:52;9.60;;;6.45;;
83026;SDS011;72842;56.038;12.706;2023-12-04T06:00:17;8.27;;;6.43;;
83026;SDS011;72842;56.038;12.706;2023-12-04T06:02:43;8.38;;;6.20;;
83026;SDS011;72842;56.038;12.706;2023-12-04T06:05:09;8.05;;;5.97;;
83026;SDS011;72842;56.038;12.706;2023-12-04T06:07:35;9.38;;;6.22;;
83026;SDS011;72842;56.038;12.706;2023-12-04T06:10:01;8.32;;;6.50;;
83026;SDS011;72842;56.038;12.706;2023-12-04T06:12:29;9.50;;;6.45;;
83026;SDS011;72842;56.038;12.706;2023-12-04T06:14:55;10.45;;;6.30;;
83026;SDS011;72842;56.038;12.706;2023-12-04T06:17:20;9.30;;;7.28;;
83026;SDS011;72842;56.038;12.706;2023-12-04T06:19:46;9.00;;;5.63;;
83026;SDS011;72842;56.038;12.706;2023-12-04T06:22:11;9.98;;;6.38;;
83026;SDS011;72842;56.038;12.706;2023-12-04T06:24:37;8.57;;;6.60;;
83026;SDS011;72842;56.038;12.706;2023-12-04T06:27:03;9.77;;;7.13;;
83026;SDS011;72842;56.038;12.706;2023-12-04T06:29:30;8.75;;;6.38;;
83026;SDS011;72842;56.038;12.706;2023-12-04T06:31:56;11.68;;;8.57;;
83026;SDS011;72842;56.038;12.706;2023-12-04T06:34:21;10.63;;;6.78;;
83026;SDS011;72842;56.038;12.706;2023-12-04T06:36:47;10.43;;;7.28;;
83026;SDS011;72842;56.038;12.706;2023-12-04T06:39:13;9.57;;;6.57;;
83026;SDS011;72842;56.038;12.706;2023-12-04T06:41:41;10.27;;;6.53;;
83026;SDS011;72842;56.038;12.706;2023-12-04T06:44:08;9.05;;;7.00;;
83026;SDS011;72842;56.038;12.706;2023-12-04T06:46:34;8.00;;;5.72;;
83026;SDS011;72842;56.038;12.706;2023-12-04T06:49:03;11.23;;;7.10;;
83026;SDS011;72842;56.038;12.706;2023-12-04T06:51:31;10.25;;;7.18;;
83026;SDS011;72842;56.038;12.706;2023-12-04T06:53:56;9.02;;;6.20;;
83026;SDS011;72842;56.038;12.706;2023-12-04T06:56:21;8.00;;;5.72;;
83026;SDS011;72842;56.038;12.706;2023-12-04T06:58:47;8.15;;;5.35;;
83026;SDS011;72842;56.038;12.706;2023-12-04T07:01:12;9.95;;;5.43;;
83026;SDS011;72842;56.038;12.706;2023-12-04T07:03:38;9.13;;;7.03;;
83026;SDS011;72842;56.038;12.706;2023-12-04T07:06:03;9.90;;;5.97;;
83026;SDS011;72842;56.038;12.706;2023-12-04T07:08:29;9.27;;;7.05;;
83026;SDS011;72842;56.038;12.706;2023-12-04T07:10:54;7.93;;;6.35;;
83026;SDS011;72842;56.038;12.706;2023-12-04T07:13:20;9.50;;;6.40;;
83026;SDS011;72842;56.038;12.706;2023-12-04T07:15:45;10.05;;;5.88;;
83026;SDS011;72842;56.038;12.706;2023-12-04T07:18:10;9.00;;;6.60;;
83026;SDS011;72842;56.038;12.706;2023-12-04T07:20:36;11.50;;;7.03;;
83026;SDS011;72842;56.038;12.706;2023-12-04T07:23:01;10.50;;;7.05;;
83026;SDS011;72842;56.038;12.706;2023-12-04T07:25:27;10.57;;;7.05;;
83026;SDS011;72842;56.038;12.706;2023-12-04T07:27:52;8.98;;;6.28;;
83026;SDS011;72842;56.038;12.706;2023-12-04T07:30:18;10.20;;;7.45;;
83026;SDS011;72842;56.038;12.706;2023-12-04T07:32:43;8.35;;;5.75;;
83026;SDS011;72842;56.038;12.706;2023-12-04T07:35:09;9.60;;;6.85;;
83026;SDS011;72842;56.038;12.706;2023-12-04T07:37:34;10.27;;;6.93;;
83026;SDS011;72842;56.038;12.706;2023-12-04T07:39:59;8.07;;;6.72;;
83026;SDS011;72842;56.038;12.706;2023-12-04T07:42:25;10.23;;;7.50;;
83026;SDS011;72842;56.038;12.706;2023-12-04T07:44:50;9.85;;;6.70;;
83026;SDS011;72842;56.038;12.706;2023-12-04T07:47:16;9.90;;;7.18;;
83026;SDS011;72842;56.038;12.706;2023-12-04T07:49:41;9.60;;;7.05;;
83026;SDS011;72842;56.038;12.706;2023-12-04T07:52:09;9.13;;;5.93;;
83026;SDS011;72842;56.038;12.706;2023-12-04T07:54:34;9.07;;;6.50;;
83026;SDS011;72842;56.038;12.706;2023-12-04T07:56:59;7.63;;;6.25;;
83026;SDS011;72842;56.038;12.706;2023-12-04T07:59:25;9.82;;;7.20;;
83026;SDS011;72842;56.038;12.706;2023-12-04T08:01:51;10.82;;;6.82;;
83026;SDS011;72842;56.038;12.706;2023-12-04T08:04:16;9.73;;;6.63;;
83026;SDS011;72842;56.038;12.706;2023-12-04T08:06:42;10.27;;;7.40;;
83026;SDS011;72842;56.038;12.706;2023-12-04T08:09:07;8.07;;;5.28;;
83026;SDS011;72842;56.038;12.706;2023-12-04T08:11:35;8.75;;;6.80;;
83026;SDS011;72842;56.038;12.706;2023-12-04T08:14:03;9.55;;;7.03;;
83026;SDS011;72842;56.038;12.706;2023-12-04T08:16:29;9.30;;;6.50;;
83026;SDS011;72842;56.038;12.706;2023-12-04T08:18:55;9.95;;;6.85;;
83026;SDS011;72842;56.038;12.706;2023-12-04T08:21:21;9.88;;;7.70;;
83026;SDS011;72842;56.038;12.706;2023-12-04T08:23:46;9.00;;;5.90;;
83026;SDS011;72842;56.038;12.706;2023-12-04T08:26:12;10.18;;;7.45;;
83026;SDS011;72842;56.038;12.706;2023-12-04T08:28:37;10.02;;;7.20;;
83026;SDS011;72842;56.038;12.706;2023-12-04T08:31:06;8.73;;;6.88;;
83026;SDS011;72842;56.038;12.706;2023-12-04T08:33:33;10.23;;;6.75;;
83026;SDS011;72842;56.038;12.706;2023-12-04T08:35:59;7.97;;;6.88;;
83026;SDS011;72842;56.038;12.706;2023-12-04T08:38:25;9.00;;;6.90;;
83026;SDS011;72842;56.038;12.706;2023-12-04T08:40:50;7.82;;;6.65;;
83026;SDS011;72842;56.038;12.706;2023-12-04T08:43:16;8.90;;;6.50;;
83026;SDS011;72842;56.038;12.706;2023-12-04T08:45:41;9.27;;;7.30;;
83026;SDS011;72842;56.038;12.706;2023-12-04T08:48:06;8.40;;;6.35;;
83026;SDS011;72842;56.038;12.706;2023-12-04T08:50:32;8.70;;;6.30;;
83026;SDS011;72842;56.038;12.706;2023-12-04T08:52:57;7.88;;;6.20;;
83026;SDS011;72842;56.038;12.706;2023-12-04T08:55:23;10.32;;;5.95;;
83026;SDS011;72842;56.038;12.706;2023-12-04T08:57:48;8.90;;;6.78;;
83026;SDS011;72842;56.038;12.706;2023-12-04T09:00:13;8.57;;;7.28;;
83026;SDS011;72842;56.038;12.706;2023-12-04T09:02:39;10.82;;;7.40;;
83026;SDS011;72842;56.038;12.706;2023-12-04T09:05:05;9.18;;;7.22;;
83026;SDS011;72842;56.038;12.706;2023-12-04T09:07:30;10.10;;;6.70;;
83026;SDS011;72842;56.038;12.706;2023-12-04T09:09:56;11.30;;;6.15;;
83026;SDS011;72842;56.038;12.706;2023-12-04T09:12:21;9.27;;;6.30;;
83026;SDS011;72842;56.038;12.706;2023-12-04T09:14:47;8.70;;;6.55;;
83026;SDS011;72842;56.038;12.706;2023-12-04T09:17:12;11.13;;;6.75;;
83026;SDS011;72842;56.038;12.706;2023-12-04T09:19:38;9.85;;;6.57;;
83026;SDS011;72842;56.038;12.706;2023-12-04T09:22:04;7.65;;;6.47;;
83026;SDS011;72842;56.038;12.706;2023-12-04T09:24:30;8.57;;;6.28;;
83026;SDS011;72842;56.038;12.706;2023-12-04T09:26:56;9.38;;;6.68;;
83026;SDS011;72842;56.038;12.706;2023-12-04T09:29:21;10.65;;;7.18;;
83026;SDS011;72842;56.038;12.706;2023-12-04T09:31:49;10.00;;;7.82;;
83026;SDS011;72842;56.038;12.706;2023-12-04T09:34:16;8.80;;;6.13;;
83026;SDS011;72842;56.038;12.706;2023-12-04T09:36:43;9.18;;;6.82;;
83026;SDS011;72842;56.038;12.706;2023-12-04T09:39:08;8.93;;;7.53;;
83026;SDS011;72842;56.038;12.706;2023-12-04T09:41:34;8.23;;;6.50;;
83026;SDS011;72842;56.038;12.706;2023-12-04T09:44:00;7.70;;;6.05;;
83026;SDS011;72842;56.038;12.706;2023-12-04T09:46:26;10.50;;;7.53;;
83026;SDS011;72842;56.038;12.706;2023-12-04T09:48:52;10.75;;;7.63;;
83026;SDS011;72842;56.038;12.706;2023-12-04T09:51:19;6.65;;;5.20;;
83026;SDS011;72842;56.038;12.706;2023-12-04T09:53:47;8.70;;;7.10;;
83026;SDS011;72842;56.038;12.706;2023-12-04T09:56:12;9.18;;;6.35;;
83026;SDS011;72842;56.038;12.706;2023-12-04T09:58:41;9.15;;;7.13;;
83026;SDS011;72842;56.038;12.706;2023-12-04T10:01:08;10.90;;;7.10;;
83026;SDS011;72842;56.038;12.706;2023-12-04T10:03:34;9.18;;;6.88;;
83026;SDS011;72842;56.038;12.706;2023-12-04T10:06:00;11.18;;;6.30;;
83026;SDS011;72842;56.038;12.706;2023-12-04T10:08:26;9.57;;;7.00;;
83026;SDS011;72842;56.038;12.706;2023-12-04T10:10:51;9.57;;;7.30;;
83026;SDS011;72842;56.038;12.706;2023-12-04T10:13:16;9.18;;;7.38;;
83026;SDS011;72842;56.038;12.706;2023-12-04T10:15:48;9.70;;;6.95;;
83026;SDS011;72842;56.038;12.706;2023-12-04T10:18:24;9.43;;;6.00;;
83026;SDS011;72842;56.038;12.706;2023-12-04T10:20:55;8.98;;;6.35;;
83026;SDS011;72842;56.038;12.706;2023-12-04T10:23:21;9.55;;;7.35;;
83026;SDS011;72842;56.038;12.706;2023-12-04T10:25:48;10.70;;;8.88;;
83026;SDS011;72842;56.038;12.706;2023-12-04T10:28:17;11.68;;;7.38;;
83026;SDS011;72842;56.038;12.706;2023-12-04T10:30:43;9.32;;;7.35;;
83026;SDS011;72842;56.038;12.706;2023-12-04T10:33:10;8.82;;;6.82;;
83026;SDS011;72842;56.038;12.706;2023-12-04T10:35:37;10.27;;;7.45;;
83026;SDS011;72842;56.038;12.706;2023-12-04T10:38:03;9.15;;;7.32;;
83026;SDS011;72842;56.038;12.706;2023-12-04T10:40:30;12.35;;;7.82;;
83026;SDS011;72842;56.038;12.706;2023-12-04T10:43:31;9.02;;;7.00;;
83026;SDS011;72842;56.038;12.706;2023-12-04T10:45:50;8.65;;;6.75;;
83026;SDS011;72842;56.038;12.706;2023-12-04T10:48:16;9.90;;;7.72;;
83026;SDS011;72842;56.038;12.706;2023-12-04T10:50:46;7.72;;;6.03;;
83026;SDS011;72842;56.038;12.706;2023-12-04T10:53:14;11.30;;;7.30;;
83026;SDS011;72842;56.038;12.706;2023-12-04T10:55:41;9.73;;;7.47;;
83026;SDS011;72842;56.038;12.706;2023-12-04T10:58:10;13.90;;;7.72;;
83026;SDS011;72842;56.038;12.706;2023-12-04T11:00:43;9.88;;;7.20;;
83026;SDS011;72842;56.038;12.706;2023-12-04T11:03:14;11.70;;;7.68;;
83026;SDS011;72842;56.038;12.706;2023-12-04T11:08:16;9.07;;;7.40;;
83026;SDS011;72842;56.038;12.706;2023-12-04T11:10:45;9.40;;;6.53;;
83026;SDS011;72842;56.038;12.706;2023-12-04T11:13:17;9.40;;;7.95;;
83026;SDS011;72842;56.038;12.706;2023-12-04T11:15:48;10.98;;;6.47;;
83026;SDS011;72842;56.038;12.706;2023-12-04T11:18:15;9.85;;;6.68;;
83026;SDS011;72842;56.038;12.706;2023-12-04T11:21:03;10.55;;;7.13;;
83026;SDS011;72842;56.038;12.706;2023-12-04T11:23:32;11.48;;;8.02;;
83026;SDS011;72842;56.038;12.706;2023-12-04T11:25:59;10.70;;;7.55;;
83026;SDS011;72842;56.038;12.706;2023-12-04T11:28:26;10.10;;;7.70;;
83026;SDS011;72842;56.038;12.706;2023-12-04T11:30:53;12.48;;;7.80;;
83026;SDS011;72842;56.038;12.706;2023-12-04T11:33:19;9.50;;;6.75;;
83026;SDS011;72842;56.038;12.706;2023-12-04T11:35:45;12.50;;;7.68;;
83026;SDS011;72842;56.038;12.706;2023-12-04T11:38:13;10.35;;;7.72;;
83026;SDS011;72842;56.038;12.706;2023-12-04T11:40:40;7.95;;;7.15;;
83026;SDS011;72842;56.038;12.706;2023-12-04T11:43:40;9.27;;;6.85;;
83026;SDS011;72842;56.038;12.706;2023-12-04T11:46:09;9.35;;;7.07;;
83026;SDS011;72842;56.038;12.706;2023-12-04T11:48:38;12.57;;;8.55;;
83026;SDS011;72842;56.038;12.706;2023-12-04T11:51:07;9.02;;;7.63;;
83026;SDS011;72842;56.038;12.706;2023-12-04T11:53:36;11.55;;;7.60;;
83026;SDS011;72842;56.038;12.706;2023-12-04T11:56:12;11.52;;;7.43;;
83026;SDS011;72842;56.038;12.706;2023-12-04T11:58:44;9.32;;;6.63;;
83026;SDS011;72842;56.038;12.706;2023-12-04T12:01:10;11.20;;;6.78;;
83026;SDS011;72842;56.038;12.706;2023-12-04T12:03:36;9.80;;;7.72;;
83026;SDS011;72842;56.038;12.706;2023-12-04T12:06:01;10.07;;;7.38;;
83026;SDS011;72842;56.038;12.706;2023-12-04T12:08:28;9.45;;;7.13;;
83026;SDS011;72842;56.038;12.706;2023-12-04T12:10:54;9.75;;;7.70;;
83026;SDS011;72842;56.038;12.706;2023-12-04T12:13:20;9.98;;;7.00;;
83026;SDS011;72842;56.038;12.706;2023-12-04T12:15:48;10.05;;;7.45;;
83026;SDS011;72842;56.038;12.706;2023-12-04T12:18:16;10.10;;;7.03;;
83026;SDS011;72842;56.038;12.706;2023-12-04T12:20:41;8.10;;;7.00;;
83026;SDS011;72842;56.038;12.706;2023-12-04T12:23:07;9.43;;;6.63;;
83026;SDS011;72842;56.038;12.706;2023-12-04T12:25:34;10.77;;;7.80;;
83026;SDS011;72842;56.038;12.706;2023-12-04T12:28:03;9.20;;;6.82;;
83026;SDS011;72842;56.038;12.706;2023-12-04T12:30:29;10.63;;;7.63;;
83026;SDS011;72842;56.038;12.706;2023-12-04T12:32:55;9.35;;;7.88;;
83026;SDS011;72842;56.038;12.706;2023-12-04T12:35:20;11.02;;;7.68;;
83026;SDS011;72842;56.038;12.706;2023-12-04T12:37:45;9.27;;;6.93;;
83026;SDS011;72842;56.038;12.706;2023-12-04T12:40:11;9.43;;;7.00;;
83026;SDS011;72842;56.038;12.706;2023-12-04T12:42:37;9.35;;;7.88;;
83026;SDS011;72842;56.038;12.706;2023-12-04T12:45:06;10.00;;;7.00;;
83026;SDS011;72842;56.038;12.706;2023-12-04T12:47:35;9.32;;;7.18;;
83026;SDS011;72842;56.038;12.706;2023-12-04T12:50:01;9.75;;;6.63;;
83026;SDS011;72842;56.038;12.706;2023-12-04T12:52:27;14.00;;;7.43;;
83026;SDS011;72842;56.038;12.706;2023-12-04T12:54:53;10.75;;;6.97;;
83026;SDS011;72842;56.038;12.706;2023-12-04T12:57:18;8.80;;;6.32;;
83026;SDS011;72842;56.038;12.706;2023-12-04T12:59:44;11.02;;;7.18;;
83026;SDS011;72842;56.038;12.706;2023-12-04T13:02:10;10.45;;;5.93;;
83026;SDS011;72842;56.038;12.706;2023-12-04T13:04:36;10.88;;;7.38;;
83026;SDS011;72842;56.038;12.706;2023-12-04T13:07:02;9.80;;;7.55;;
83026;SDS011;72842;56.038;12.706;2023-12-04T13:09:30;11.23;;;6.93;;
83026;SDS011;72842;56.038;12.706;2023-12-04T13:11:56;9.95;;;6.82;;
83026;SDS011;72842;56.038;12.706;2023-12-04T13:14:22;8.85;;;7.15;;
83026;SDS011;72842;56.038;12.706;2023-12-04T13:16:47;11.57;;;7.70;;
83026;SDS011;72842;56.038;12.706;2023-12-04T13:19:12;10.05;;;6.78;;
83026;SDS011;72842;56.038;12.706;2023-12-04T13:21:38;10.18;;;6.65;;
83026;SDS011;72842;56.038;12.706;2023-12-04T13:24:03;10.50;;;6.68;;
83026;SDS011;72842;56.038;12.706;2023-12-04T13:26:32;10.63;;;6.43;;
83026;SDS011;72842;56.038;12.706;2023-12-04T13:28:58;9.68;;;6.95;;
83026;SDS011;72842;56.038;12.706;2023-12-04T13:31:24;9.52;;;6.43;;
83026;SDS011;72842;56.038;12.706;2023-12-04T13:33:49;10.38;;;6.88;;
83026;SDS011;72842;56.038;12.706;2023-12-04T13:36:15;11.30;;;6.78;;
83026;SDS011;72842;56.038;12.706;2023-12-04T13:38:40;10.57;;;6.53;;
83026;SDS011;72842;56.038;12.706;2023-12-04T13:41:06;9.05;;;6.90;;
83026;SDS011;72842;56.038;12.706;2023-12-04T13:43:54;10.00;;;6.88;;
83026;SDS011;72842;56.038;12.706;2023-12-04T13:46:20;9.43;;;6.57;;
83026;SDS011;72842;56.038;12.706;2023-12-04T13:48:45;9.32;;;6.55;;
83026;SDS011;72842;56.038;12.706;2023-12-04T13:51:11;11.23;;;6.75;;
83026;SDS011;72842;56.038;12.706;2023-12-04T13:53:37;9.52;;;6.60;;
83026;SDS011;72842;56.038;12.706;2023-12-04T13:56:09;8.90;;;7.05;;
83026;SDS011;72842;56.038;12.706;2023-12-04T13:58:55;8.90;;;5.88;;
83026;SDS011;72842;56.038;12.706;2023-12-04T14:01:25;8.00;;;5.90;;
83026;SDS011;72842;56.038;12.706;2023-12-04T14:03:54;8.77;;;6.10;;
83026;SDS011;72842;56.038;12.706;2023-12-04T14:06:27;9.60;;;6.30;;
83026;SDS011;72842;56.038;12.706;2023-12-04T14:08:53;9.43;;;5.75;;
83026;SDS011;72842;56.038;12.706;2023-12-04T14:11:19;7.43;;;6.05;;
83026;SDS011;72842;56.038;12.706;2023-12-04T14:13:44;9.70;;;6.90;;
83026;SDS011;72842;56.038;12.706;2023-12-04T14:16:10;9.10;;;6.53;;
83026;SDS011;72842;56.038;12.706;2023-12-04T14:18:35;9.02;;;6.53;;
83026;SDS011;72842;56.038;12.706;2023-12-04T14:21:01;10.50;;;6.03;;
83026;SDS011;72842;56.038;12.706;2023-12-04T14:23:27;8.38;;;6.60;;
83026;SDS011;72842;56.038;12.706;2023-12-04T14:25:52;9.43;;;6.57;;
83026;SDS011;72842;56.038;12.706;2023-12-04T14:28:17;8.10;;;6.00;;